createdAt,value
2018-01-15T00:00:26.631Z,17.57
2018-01-15T00:02:54.066Z,16.30
2018-01-15T00:05:22.254Z,19.33
2018-01-15T00:07:50.462Z,20.03
2018-01-15T00:10:17.896Z,13.87
2018-01-15T00:12:45.335Z,19.77
2018-01-15T00:15:13.546Z,19.20
2018-01-15T00:17:40.984Z,24.23
2018-01-15T00:20:08.419Z,17.63
2018-01-15T00:22:35.847Z,20.80
2018-01-15T00:25:03.283Z,21.90
2018-01-15T00:27:30.719Z,23.03
2018-01-15T00:29:58.154Z,19.70
2018-01-15T00:32:26.367Z,21.60
2018-01-15T00:34:53.795Z,20.60
2018-01-15T00:37:21.229Z,22.23
2018-01-15T00:39:48.668Z,23.60
2018-01-15T00:42:16.096Z,25.67
2018-01-15T00:44:43.535Z,21.30
2018-01-15T00:47:10.963Z,25.20
2018-01-15T00:49:39.168Z,20.90
2018-01-15T00:52:06.582Z,17.00
2018-01-15T00:54:34.018Z,20.80
2018-01-15T00:57:01.461Z,20.93
2018-01-15T00:59:28.899Z,19.00
2018-01-15T01:01:56.328Z,17.90
2018-01-15T01:04:24.542Z,23.13
2018-01-15T01:06:51.973Z,19.53
2018-01-15T01:09:19.404Z,16.50
2018-01-15T01:11:46.834Z,22.90
2018-01-15T01:14:14.270Z,17.90
2018-01-15T01:16:41.697Z,18.60
2018-01-15T01:19:09.126Z,27.57
2018-01-15T01:21:36.555Z,23.50
2018-01-15T01:24:03.996Z,20.23
2018-01-15T01:26:31.419Z,18.80
2018-01-15T01:28:59.622Z,18.40
2018-01-15T01:31:27.056Z,18.93
2018-01-15T01:33:54.491Z,14.83
2018-01-15T01:36:22.690Z,23.73
2018-01-15T01:38:50.878Z,21.67
2018-01-15T01:41:18.312Z,19.60
2018-01-15T01:43:46.732Z,17.97
2018-01-15T01:46:14.163Z,20.13
2018-01-15T01:48:41.593Z,20.63
2018-01-15T01:51:09.025Z,18.90
2018-01-15T01:53:36.454Z,19.53
2018-01-15T01:56:03.892Z,18.30
2018-01-15T01:58:31.327Z,18.47
2018-01-15T02:00:59.549Z,20.97
2018-01-15T02:03:26.975Z,20.83
2018-01-15T02:05:54.406Z,20.17
2018-01-15T02:08:22.607Z,19.83
2018-01-15T02:10:50.047Z,18.47
2018-01-15T02:13:18.242Z,14.90
2018-01-15T02:15:45.698Z,21.27
2018-01-15T02:18:13.889Z,14.77
2018-01-15T02:20:41.331Z,20.60
2018-01-15T02:23:08.766Z,17.80
2018-01-15T02:25:36.983Z,19.13
2018-01-15T02:28:04.412Z,22.23
2018-01-15T02:30:32.613Z,26.20
2018-01-15T02:33:00.050Z,19.83
2018-01-15T02:35:27.487Z,20.60
2018-01-15T02:37:55.698Z,16.93
2018-01-15T02:40:23.131Z,18.10
2018-01-15T02:42:56.528Z,31.00
2018-01-15T02:45:23.966Z,20.83
2018-01-15T02:47:52.180Z,17.30
2018-01-15T02:50:19.620Z,18.33
2018-01-15T02:52:47.836Z,21.27
2018-01-15T02:55:15.280Z,21.90
2018-01-15T02:57:42.720Z,20.70
2018-01-15T03:00:10.156Z,27.47
2018-01-15T03:02:38.370Z,27.23
2018-01-15T03:05:05.811Z,23.50
2018-01-15T03:07:33.261Z,19.30
2018-01-15T03:10:00.703Z,20.80
2018-01-15T03:12:28.903Z,23.17
2018-01-15T03:14:56.348Z,18.07
2018-01-15T03:17:23.779Z,23.97
2018-01-15T03:19:51.985Z,21.70
2018-01-15T03:22:19.416Z,20.60
2018-01-15T03:24:47.629Z,23.33
2018-01-15T03:27:15.055Z,16.33
2018-01-15T03:29:43.265Z,22.87
2018-01-15T03:32:10.710Z,23.00
2018-01-15T03:34:38.156Z,21.37
2018-01-15T03:37:05.583Z,21.13
2018-01-15T03:39:33.016Z,21.30
2018-01-15T03:42:00.467Z,17.10
2018-01-15T03:44:27.901Z,21.73
2018-01-15T03:46:55.335Z,21.77
2018-01-15T03:49:23.538Z,17.63
2018-01-15T03:51:51.050Z,21.67
2018-01-15T03:54:19.247Z,19.97
2018-01-15T03:56:46.678Z,17.87
2018-01-15T03:59:14.144Z,27.30
2018-01-15T04:01:42.415Z,21.53
2018-01-15T04:04:10.624Z,17.97
2018-01-15T04:06:38.051Z,16.77
2018-01-15T04:09:06.316Z,20.00
2018-01-15T04:11:33.755Z,20.37
2018-01-15T04:14:01.192Z,30.27
2018-01-15T04:16:28.696Z,24.50
2018-01-15T04:18:56.903Z,23.57
2018-01-15T04:21:24.326Z,17.47
2018-01-15T04:23:52.552Z,24.90
2018-01-15T04:26:19.987Z,21.80
2018-01-15T04:28:47.421Z,23.10
2018-01-15T04:31:15.624Z,18.27
2018-01-15T04:33:43.064Z,20.27
2018-01-15T04:36:11.270Z,22.17
2018-01-15T04:38:38.706Z,20.30
2018-01-15T04:41:06.916Z,23.00
2018-01-15T04:43:34.368Z,20.20
2018-01-15T04:46:01.873Z,26.57
2018-01-15T04:48:30.067Z,18.90
2018-01-15T04:50:57.503Z,21.67
2018-01-15T04:53:25.789Z,19.50
2018-01-15T04:55:54.002Z,22.00
2018-01-15T04:58:21.431Z,22.53
2018-01-15T05:00:48.880Z,21.37
2018-01-15T05:03:17.100Z,22.23
2018-01-15T05:05:44.546Z,22.60
2018-01-15T05:08:11.978Z,16.37
2018-01-15T05:10:40.173Z,18.60
2018-01-15T05:13:07.613Z,21.20
2018-01-15T05:15:35.047Z,20.97
2018-01-15T05:18:03.256Z,20.27
2018-01-15T05:20:30.683Z,24.27
2018-01-15T05:22:58.882Z,20.17
2018-01-15T05:25:26.320Z,22.90
2018-01-15T05:27:54.526Z,18.13
2018-01-15T05:30:21.971Z,18.23
2018-01-15T05:32:49.403Z,18.80
2018-01-15T05:35:17.605Z,23.93
2018-01-15T05:37:45.031Z,24.97
2018-01-15T05:40:13.240Z,23.83
2018-01-15T05:42:40.684Z,24.07
2018-01-15T05:45:08.111Z,18.87
2018-01-15T05:47:35.548Z,22.30
2018-01-15T05:50:03.403Z,19.00
2018-01-15T05:52:30.845Z,22.00
2018-01-15T05:54:58.271Z,21.53
2018-01-15T05:57:26.363Z,22.10
2018-01-15T05:59:53.787Z,22.20
2018-01-15T06:02:21.987Z,22.47
2018-01-15T06:04:49.418Z,20.50
2018-01-15T06:07:17.642Z,22.90
2018-01-15T06:09:45.077Z,19.83
2018-01-15T06:12:12.513Z,24.13
2018-01-15T06:14:40.729Z,19.80
2018-01-15T06:17:08.165Z,23.67
2018-01-15T06:19:35.603Z,22.97
2018-01-15T06:22:03.809Z,24.77
2018-01-15T06:24:31.254Z,20.60
2018-01-15T06:26:58.689Z,19.30
2018-01-15T06:29:26.903Z,24.67
2018-01-15T06:31:54.328Z,21.37
2018-01-15T06:34:22.538Z,20.60
2018-01-15T06:36:49.975Z,17.93
2018-01-15T06:39:17.415Z,21.00
2018-01-15T06:41:45.624Z,24.03
2018-01-15T06:44:13.051Z,21.57
2018-01-15T06:46:41.258Z,21.73
2018-01-15T06:49:08.692Z,23.10
2018-01-15T06:51:36.131Z,17.67
2018-01-15T06:54:04.327Z,23.90
2018-01-15T06:56:31.768Z,17.20
2018-01-15T06:58:59.970Z,19.80
2018-01-15T07:01:27.411Z,20.57
2018-01-15T07:03:54.839Z,23.87
2018-01-15T07:06:23.070Z,25.90
2018-01-15T07:08:50.540Z,19.93
2018-01-15T07:11:17.981Z,23.50
2018-01-15T07:13:45.420Z,24.67
2018-01-15T07:16:12.847Z,17.07
2018-01-15T07:18:41.056Z,23.37
2018-01-15T07:21:08.488Z,23.47
2018-01-15T07:23:36.702Z,25.07
2018-01-15T07:26:04.127Z,21.97
2018-01-15T07:28:32.376Z,22.27
2018-01-15T07:30:59.772Z,20.50
2018-01-15T07:33:27.203Z,26.60
2018-01-15T07:35:55.399Z,19.87
2018-01-15T07:38:22.835Z,20.23
2018-01-15T07:40:50.263Z,22.30
2018-01-15T07:43:17.711Z,21.07
2018-01-15T07:45:45.152Z,26.53
2018-01-15T07:48:12.575Z,22.30
2018-01-15T07:50:40.780Z,19.43
2018-01-15T07:53:08.203Z,24.37
2018-01-15T07:55:36.416Z,21.27
2018-01-15T07:58:03.852Z,23.93
2018-01-15T08:00:31.292Z,23.50
2018-01-15T08:02:59.496Z,23.00
2018-01-15T08:05:26.931Z,25.90
2018-01-15T08:07:54.366Z,25.67
2018-01-15T08:10:21.827Z,27.73
2018-01-15T08:12:50.028Z,20.10
2018-01-15T08:15:17.472Z,20.77
2018-01-15T08:17:45.678Z,23.07
2018-01-15T08:20:13.116Z,19.77
2018-01-15T08:22:40.548Z,21.70
2018-01-15T08:25:08.769Z,28.20
2018-01-15T08:27:36.199Z,23.67
2018-01-15T08:30:03.641Z,22.87
2018-01-15T08:32:31.843Z,22.33
2018-01-15T08:34:59.347Z,23.80
2018-01-15T08:37:26.799Z,25.50
2018-01-15T08:39:54.284Z,24.60
2018-01-15T08:42:21.691Z,22.57
2018-01-15T08:44:49.145Z,26.43
2018-01-15T08:47:16.576Z,26.33
2018-01-15T08:49:44.008Z,23.60
2018-01-15T08:52:11.465Z,27.77
2018-01-15T08:54:38.896Z,28.30
2018-01-15T08:57:06.332Z,21.80
2018-01-15T08:59:33.769Z,24.60
2018-01-15T09:02:01.199Z,20.70
2018-01-15T09:04:29.424Z,25.60
2018-01-15T09:06:56.873Z,23.70
2018-01-15T09:09:24.307Z,31.10
2018-01-15T09:11:51.744Z,31.70
2018-01-15T09:14:19.948Z,32.80
2018-01-15T09:16:47.376Z,34.83
2018-01-15T09:19:15.589Z,33.30
2018-01-15T09:21:43.019Z,45.23
2018-01-15T09:24:11.226Z,33.87
2018-01-15T09:26:38.657Z,40.60
2018-01-15T09:29:06.086Z,37.70
2018-01-15T09:31:33.520Z,34.50
2018-01-15T09:34:00.969Z,42.53
2018-01-15T09:36:28.392Z,38.13
2018-01-15T09:38:55.840Z,39.63
2018-01-15T09:41:23.281Z,41.67
2018-01-15T09:43:50.694Z,38.80
2018-01-15T09:46:18.122Z,45.37
2018-01-15T09:48:45.559Z,50.57
2018-01-15T09:51:13.768Z,43.73
2018-01-15T09:53:41.207Z,47.80
2018-01-15T09:56:08.641Z,38.87
2018-01-15T09:58:36.836Z,40.00
2018-01-15T10:01:04.266Z,44.57
2018-01-15T10:03:32.477Z,37.67
2018-01-15T10:05:59.909Z,42.67
2018-01-15T10:08:28.108Z,36.70
2018-01-15T10:10:55.533Z,44.20
2018-01-15T10:13:23.723Z,41.57
2018-01-15T10:15:51.168Z,40.07
2018-01-15T10:18:19.358Z,41.70
2018-01-15T10:20:46.795Z,36.50
2018-01-15T10:23:14.995Z,39.80
2018-01-15T10:25:42.430Z,40.13
2018-01-15T10:28:10.627Z,42.43
2018-01-15T10:30:38.051Z,36.17
2018-01-15T10:33:05.491Z,46.27
2018-01-15T10:35:32.924Z,35.67
2018-01-15T10:38:00.367Z,39.57
2018-01-15T10:40:27.795Z,39.30
2018-01-15T10:42:56.012Z,36.60
2018-01-15T10:45:23.439Z,39.87
2018-01-15T10:47:50.939Z,37.80
2018-01-15T10:50:18.358Z,40.57
2018-01-15T10:52:45.803Z,42.10
2018-01-15T10:55:13.998Z,37.47
2018-01-15T10:57:41.438Z,36.80
2018-01-15T11:00:09.639Z,32.53
2018-01-15T11:02:37.080Z,34.83
2018-01-15T11:05:04.512Z,41.60
2018-01-15T11:07:32.729Z,38.57
2018-01-15T11:10:00.156Z,35.30
2018-01-15T11:12:27.601Z,34.80
2018-01-15T11:14:55.808Z,43.50
2018-01-15T11:17:23.247Z,40.20
2018-01-15T11:19:50.676Z,45.50
2018-01-15T11:22:18.103Z,38.57
2018-01-15T11:24:45.546Z,45.80
2018-01-15T11:27:13.002Z,45.43
2018-01-15T11:29:40.454Z,45.57
2018-01-15T11:32:07.875Z,43.57
2018-01-15T11:34:36.090Z,43.53
2018-01-15T11:37:03.565Z,37.97
2018-01-15T11:39:30.988Z,28.50
2018-01-15T11:41:58.418Z,35.17
2018-01-15T11:44:25.854Z,36.50
2018-01-15T11:46:53.291Z,33.77
2018-01-15T11:49:20.732Z,37.67
2018-01-15T11:51:48.160Z,33.27
2018-01-15T11:54:15.599Z,43.87
2018-01-15T11:56:43.807Z,40.17
2018-01-15T11:59:11.310Z,33.83
2018-01-15T12:01:38.748Z,39.07
2018-01-15T12:04:06.192Z,37.20
2018-01-15T12:06:33.628Z,42.50
2018-01-15T12:09:01.136Z,32.50
2018-01-15T12:11:29.332Z,45.00
2018-01-15T12:13:56.781Z,31.40
2018-01-15T12:16:24.217Z,38.17
2018-01-15T12:18:51.682Z,37.03
2018-01-15T12:21:19.090Z,39.83
2018-01-15T12:23:47.285Z,43.30
2018-01-15T12:26:15.051Z,39.10
2018-01-15T12:28:42.533Z,33.77
2018-01-15T12:31:09.975Z,35.90
2018-01-15T12:33:37.638Z,35.83
2018-01-15T12:36:05.107Z,30.47
2018-01-15T12:38:32.595Z,29.63
2018-01-15T12:41:00.029Z,32.03
2018-01-15T12:43:27.575Z,27.17
2018-01-15T12:45:55.000Z,34.30
2018-01-15T12:48:22.445Z,39.00
2018-01-15T12:50:50.648Z,36.47
2018-01-15T12:53:18.167Z,34.67
2018-01-15T12:55:46.364Z,33.90
2018-01-15T12:58:13.805Z,30.97
2018-01-15T13:00:42.116Z,32.80
2018-01-15T13:03:11.691Z,31.20
2018-01-15T13:05:50.006Z,28.50
2018-01-15T13:08:30.264Z,32.80
2018-01-15T13:10:58.568Z,29.87
2018-01-15T13:13:26.011Z,30.53
2018-01-15T13:15:53.437Z,30.90
2018-01-15T13:18:20.882Z,29.53
2018-01-15T13:20:49.018Z,28.70
2018-01-15T13:23:16.786Z,30.40
2018-01-15T13:25:45.058Z,34.97
2018-01-15T13:28:12.506Z,31.93
2018-01-15T13:30:39.927Z,30.57
2018-01-15T13:33:09.172Z,30.90
2018-01-15T13:35:36.612Z,22.17
2018-01-15T13:38:04.090Z,31.43
2018-01-15T13:40:33.778Z,30.50
2018-01-15T13:43:01.955Z,31.10
2018-01-15T13:45:29.379Z,27.73
2018-01-15T13:47:57.583Z,27.57
2018-01-15T13:50:25.112Z,29.30
2018-01-15T13:52:53.307Z,22.20
2018-01-15T13:55:20.737Z,27.63
2018-01-15T13:57:48.161Z,32.70
2018-01-15T14:00:15.607Z,28.33
2018-01-15T14:02:43.070Z,22.57
2018-01-15T14:05:10.509Z,25.60
2018-01-15T14:07:37.943Z,31.57
2018-01-15T14:10:06.203Z,31.57
2018-01-15T14:12:34.418Z,24.67
2018-01-15T14:15:01.899Z,23.83
2018-01-15T14:17:29.347Z,34.90
2018-01-15T14:19:56.806Z,23.93
2018-01-15T14:22:24.507Z,25.43
2018-01-15T14:24:51.973Z,22.23
2018-01-15T14:27:19.399Z,23.77
2018-01-15T14:29:46.836Z,23.40
2018-01-15T14:32:14.273Z,21.17
2018-01-15T14:34:41.738Z,21.03
2018-01-15T14:37:09.915Z,22.90
2018-01-15T14:39:37.344Z,19.40
2018-01-15T14:42:05.608Z,21.10
2018-01-15T14:44:33.800Z,16.27
2018-01-15T14:47:02.103Z,16.67
2018-01-15T14:49:29.569Z,19.50
2018-01-15T14:51:57.103Z,19.97
2018-01-15T14:54:24.532Z,32.20
2018-01-15T14:56:52.747Z,20.20
2018-01-15T14:59:20.184Z,18.60
2018-01-15T15:01:47.612Z,18.80
2018-01-15T15:04:15.043Z,24.30
2018-01-15T15:06:42.466Z,20.37
2018-01-15T15:09:09.911Z,24.47
2018-01-15T15:11:37.384Z,17.47
2018-01-15T15:14:04.826Z,21.33
2018-01-15T15:16:33.039Z,15.20
2018-01-15T15:19:00.469Z,15.40
2018-01-15T15:21:27.944Z,21.03
2018-01-15T15:23:55.378Z,25.03
2018-01-15T15:26:23.711Z,19.93
2018-01-15T15:28:51.253Z,19.63
2018-01-15T15:31:18.794Z,17.00
2018-01-15T15:33:46.207Z,22.33
2018-01-15T15:36:14.612Z,26.80
2018-01-15T15:38:42.290Z,17.43
2018-01-15T15:41:09.811Z,19.60
2018-01-15T15:43:38.107Z,17.30
2018-01-15T15:46:06.312Z,20.37
2018-01-15T15:48:33.793Z,17.87
2018-01-15T15:51:01.212Z,26.00
2018-01-15T15:53:28.636Z,25.27
2018-01-15T15:55:56.885Z,26.80
2018-01-15T15:58:24.664Z,24.57
2018-01-15T16:00:52.095Z,23.43
2018-01-15T16:03:19.528Z,23.93
2018-01-15T16:05:46.973Z,26.87
2018-01-15T16:08:14.412Z,24.60
2018-01-15T16:10:42.616Z,23.10
2018-01-15T16:13:10.061Z,22.07
2018-01-15T16:15:37.530Z,32.70
2018-01-15T16:18:04.963Z,26.63
2018-01-15T16:20:32.452Z,34.77
2018-01-15T16:22:59.884Z,23.10
2018-01-15T16:25:27.529Z,25.07
2018-01-15T16:27:54.947Z,25.47
2018-01-15T16:30:22.387Z,27.63
2018-01-15T16:32:49.837Z,20.37
2018-01-15T16:35:17.432Z,23.30
2018-01-15T16:37:44.856Z,31.57
2018-01-15T16:40:12.291Z,23.63
2018-01-15T16:42:39.732Z,24.40
2018-01-15T16:45:07.923Z,21.07
2018-01-15T16:47:35.360Z,21.50
2018-01-15T16:50:09.302Z,23.73
2018-01-15T16:52:36.727Z,20.37
2018-01-15T16:55:04.921Z,21.10
2018-01-15T16:57:32.353Z,21.30
2018-01-15T17:00:00.554Z,21.90
2018-01-15T17:02:27.992Z,26.90
2018-01-15T17:04:56.213Z,28.70
2018-01-15T17:07:23.657Z,25.33
2018-01-15T17:09:51.079Z,28.13
2018-01-15T17:12:19.267Z,18.23
2018-01-15T17:14:46.703Z,20.63
2018-01-15T17:17:14.899Z,29.53
2018-01-15T17:19:42.331Z,22.07
2018-01-15T17:22:10.536Z,24.83
2018-01-15T17:24:37.967Z,25.40
2018-01-15T17:27:06.167Z,20.87
2018-01-15T17:29:33.620Z,23.97
2018-01-15T17:32:01.179Z,20.40
2018-01-15T17:34:28.612Z,18.13
2018-01-15T17:36:56.817Z,27.00
2018-01-15T17:39:24.243Z,19.63
2018-01-15T17:41:52.449Z,18.40
2018-01-15T17:44:19.871Z,18.20
2018-01-15T17:46:47.309Z,23.40
2018-01-15T17:49:14.745Z,22.27
2018-01-15T17:51:42.190Z,27.50
2018-01-15T17:54:09.622Z,20.73
2018-01-15T17:56:37.061Z,23.57
2018-01-15T17:59:05.261Z,20.97
2018-01-15T18:01:32.699Z,26.47
2018-01-15T18:04:00.887Z,18.90
2018-01-15T18:06:28.331Z,17.67
2018-01-15T18:08:56.529Z,24.57
2018-01-15T18:11:23.960Z,23.60
2018-01-15T18:13:52.232Z,19.57
2018-01-15T18:16:20.504Z,17.10
2018-01-15T18:18:47.968Z,19.03
2018-01-15T18:21:16.166Z,19.83
2018-01-15T18:23:43.604Z,19.97
2018-01-15T18:26:11.804Z,18.67
2018-01-15T18:28:39.251Z,20.70
2018-01-15T18:31:06.676Z,19.20
2018-01-15T18:33:34.110Z,22.60
2018-01-15T18:36:01.542Z,23.63
2018-01-15T18:38:28.971Z,18.20
2018-01-15T18:40:57.173Z,28.53
2018-01-15T18:43:24.611Z,21.40
2018-01-15T18:45:52.034Z,21.37
2018-01-15T18:48:19.470Z,19.80
2018-01-15T18:50:46.902Z,19.67
2018-01-15T18:53:14.339Z,18.00
2018-01-15T18:55:41.786Z,19.53
2018-01-15T18:58:09.989Z,16.33
2018-01-15T19:00:37.511Z,25.53
2018-01-15T19:03:05.709Z,20.10
2018-01-15T19:05:33.235Z,16.33
2018-01-15T19:08:00.658Z,16.17
2018-01-15T19:10:28.101Z,16.70
2018-01-15T19:12:55.548Z,13.10
2018-01-15T19:15:22.961Z,15.70
2018-01-15T19:17:50.394Z,13.87
2018-01-15T19:20:17.833Z,10.03
2018-01-15T19:22:45.252Z,14.13
2018-01-15T19:25:13.456Z,11.47
2018-01-15T19:27:40.888Z,8.80
2018-01-15T19:30:08.479Z,13.00
2018-01-15T19:32:35.887Z,10.40
2018-01-15T19:35:06.848Z,9.33
2018-01-15T19:37:37.332Z,9.97
2018-01-15T19:40:04.854Z,10.10
2018-01-15T19:42:32.284Z,8.87
2018-01-15T19:45:06.343Z,11.87
2018-01-15T19:47:39.519Z,8.90
2018-01-15T19:50:12.637Z,7.23
2018-01-15T19:52:45.904Z,8.17
2018-01-15T19:55:19.124Z,10.17
2018-01-15T19:57:52.164Z,5.53
2018-01-15T20:00:26.430Z,4.83
2018-01-15T20:02:59.613Z,9.73
2018-01-15T20:05:32.793Z,6.90
2018-01-15T20:08:05.815Z,4.43
2018-01-15T20:10:39.011Z,6.60
2018-01-15T20:13:06.504Z,5.90
2018-01-15T20:15:33.938Z,4.27
2018-01-15T20:18:02.131Z,6.20
2018-01-15T20:20:29.555Z,3.97
2018-01-15T20:22:59.442Z,6.67
2018-01-15T20:25:27.679Z,5.13
2018-01-15T20:27:55.155Z,7.70
2018-01-15T20:30:22.572Z,8.60
2018-01-15T20:32:50.778Z,7.83
2018-01-15T20:35:18.203Z,5.90
2018-01-15T20:37:46.397Z,6.00
2018-01-15T20:40:13.833Z,4.80
2018-01-15T20:42:42.020Z,8.73
2018-01-15T20:45:09.456Z,7.13
2018-01-15T20:47:36.989Z,11.00
2018-01-15T20:50:04.406Z,5.30
2018-01-15T20:52:31.834Z,6.30
2018-01-15T20:55:00.029Z,7.47
2018-01-15T20:57:27.468Z,7.23
2018-01-15T20:59:55.655Z,4.37
2018-01-15T21:02:23.089Z,5.60
2018-01-15T21:04:50.547Z,5.73
2018-01-15T21:07:18.010Z,6.73
2018-01-15T21:09:46.210Z,6.00
2018-01-15T21:12:13.642Z,5.63
2018-01-15T21:14:41.073Z,10.17
2018-01-15T21:17:08.491Z,6.27
2018-01-15T21:19:36.933Z,5.27
2018-01-15T21:22:05.571Z,4.53
2018-01-15T21:24:32.981Z,5.60
2018-01-15T21:27:01.176Z,5.63
2018-01-15T21:29:28.660Z,7.17
2018-01-15T21:31:56.087Z,4.37
2018-01-15T21:34:23.602Z,4.73
2018-01-15T21:36:51.047Z,6.00
2018-01-15T21:39:18.484Z,3.20
2018-01-15T21:41:45.934Z,4.50
2018-01-15T21:44:13.401Z,4.73
2018-01-15T21:46:41.077Z,2.77
2018-01-15T21:49:08.488Z,7.00
2018-01-15T21:51:35.923Z,5.27
2018-01-15T21:54:03.344Z,3.47
2018-01-15T21:56:30.784Z,4.37
2018-01-15T21:58:59.049Z,6.10
2018-01-15T22:01:26.674Z,5.33
2018-01-15T22:03:54.196Z,3.33
2018-01-15T22:06:21.636Z,5.40
2018-01-15T22:08:49.103Z,7.00
2018-01-15T22:11:16.537Z,4.03
2018-01-15T22:13:45.414Z,6.13
2018-01-15T22:16:13.613Z,4.57
2018-01-15T22:18:41.024Z,8.93
2018-01-15T22:21:08.981Z,4.67
2018-01-15T22:23:36.413Z,5.57
2018-01-15T22:26:03.944Z,3.43
2018-01-15T22:28:31.358Z,4.47
2018-01-15T22:30:58.839Z,3.57
2018-01-15T22:33:27.040Z,3.00
2018-01-15T22:35:54.756Z,2.80
2018-01-15T22:38:22.315Z,3.70
2018-01-15T22:40:49.760Z,4.20
2018-01-15T22:43:17.192Z,2.00
2018-01-15T22:45:44.712Z,1.77
2018-01-15T22:48:12.918Z,1.27
2018-01-15T22:50:40.439Z,2.60
2018-01-15T22:53:08.644Z,1.30
2018-01-15T22:55:36.084Z,1.50
2018-01-15T22:58:03.519Z,1.37
2018-01-15T23:00:30.977Z,1.87
2018-01-15T23:02:58.448Z,2.13
2018-01-15T23:05:27.451Z,1.00
2018-01-15T23:07:54.875Z,1.53
2018-01-15T23:10:22.305Z,0.80
2018-01-15T23:12:49.787Z,0.83
2018-01-15T23:15:17.328Z,1.03
2018-01-15T23:17:44.815Z,0.80
2018-01-15T23:20:12.335Z,1.37
2018-01-15T23:22:39.778Z,0.90
2018-01-15T23:25:07.197Z,0.80
2018-01-15T23:27:35.448Z,1.13
2018-01-15T23:30:02.900Z,0.60
2018-01-15T23:32:30.610Z,0.70
2018-01-15T23:34:58.199Z,0.50
2018-01-15T23:37:26.916Z,0.70
2018-01-15T23:39:54.332Z,0.50
2018-01-15T23:42:21.767Z,0.50
2018-01-15T23:44:49.963Z,0.80
2018-01-15T23:47:17.385Z,0.50
2018-01-15T23:49:45.644Z,0.50
2018-01-15T23:52:14.996Z,0.67
2018-01-15T23:54:42.415Z,0.50
2018-01-15T23:57:12.371Z,0.50
2018-01-15T23:59:39.783Z,0.70
